Latest Coastal Weather Observations for Bundaberg

IDQ60701

Issued at 12:32 pm EST Saturday 16 October 2021 (issued every 10 minutes, with the page automatically refreshed every 10 minutes)

About coastal observations | Map of coastal stations | Coastal observations for QLD | Marine services | Other Formats
Station Details ID: 039128 Name: BUNDABERG AERO Lat: -24.91 Lon: 152.32 Height: 30.82 m
Data from the previous 72 hours. | See also: Recent months at Bundaberg
Date/Time
EST
Wind Sea
Height
m
Swell Vis
km
Cloud Weather Temp
°C
Press
MSL
hPa
Rain since
9am
mm
Dir  Spd
kts
Gust
kts
Height
m
Period
s
Dir
16/12:30pm WSW 10 14 - - - - 10 Clear - 28.1 1009.3 0.0
16/12:00pm SW 12 16 - - - - 10 - - 27.3 1009.9 0.0
16/11:30am WSW 9 18 - - - - 10 - - 27.1 1010.3 0.0
16/11:00am SW 11 16 - - - - 10 - - 26.3 1010.8 0.0
16/10:30am SW 10 15 - - - - 10 - - 26.1 1011.0 0.0
16/10:00am SW 11 15 - - - - 10 - - 25.3 1011.5 0.0
16/09:30am SW 10 13 - - - - 10 - - 24.8 1011.7 0.0
16/09:00am SW 12 18 - - - - 10 - - 23.8 1011.8 6.0
16/08:30am SW 10 13 - - - - 10 - - 22.9 1011.8 6.0
16/08:00am SW 9 13 - - - - 10 - - 22.5 1011.6 6.0
16/07:30am SW 10 14 - - - - 10 - - 21.6 1011.4 6.0
16/07:00am WSW 9 12 - - - - 10 - - 20.9 1011.2 6.0
16/06:30am WSW 8 11 - - - - 10 - - 19.7 1010.9 6.0
16/06:00am WSW 7 9 - - - - 10 - - 18.4 1010.5 6.0
16/05:30am WSW 6 9 - - - - 10 - - 17.7 1010.1 6.0
16/05:00am SW 7 9 - - - - 10 - - 18.1 1009.8 6.0
16/04:30am WSW 5 8 - - - - 10 - - 18.1 1009.4 6.0
16/04:00am WSW 6 8 - - - - 10 - - 18.0 1009.1 6.0
16/03:30am WSW 6 7 - - - - 10 - - 18.4 1008.9 6.0
16/03:00am WSW 6 7 - - - - 10 - - 18.8 1008.7 6.0
16/02:30am SW 5 7 - - - - 10 - - 19.7 1008.6 6.0
16/02:00am WSW 5 7 - - - - 10 - - 20.4 1008.7 6.0
16/01:30am WSW 5 7 - - - - 10 - - 21.1 1008.7 5.8
16/01:03am SW 6 8 - - - - 10 Partly cloudy - 21.3 1008.6 5.8
16/01:01am SW 6 8 - - - - 9 Partly cloudy - 21.4 1008.6 5.8
16/01:00am SW 6 9 - - - - 9 Partly cloudy - 21.5 1008.6 5.8
16/12:34am WNW 4 4 - - - - 0.2 Partly cloudy - 20.9 1008.5 5.8
16/12:30am NW 4 5 - - - - 0.4 Partly cloudy - 20.8 1008.5 5.8
16/12:00am WNW 2 3 - - - - 1 - - 21.8 1008.5 5.8
 
Date/Time
EST
Wind Sea
Height
m
Swell Vis
km
Cloud Weather Temp
°C
Press
MSL
hPa
Rain since
9am
mm
Dir  Spd
kts
Gust
kts
Height
m
Period
s
Dir
15/11:34pm WNW 4 5 - - - - 5 - - 21.9 1008.4 5.8
15/11:30pm WNW 4 5 - - - - 6 - - 21.9 1008.4 5.8
15/11:00pm WSW 6 7 - - - - 8 Partly cloudy - 22.9 1008.6 5.8
15/10:30pm NNW 6 8 - - - - 9 - - 23.1 1008.5 5.8
15/10:00pm N 5 7 - - - - 10 Partly cloudy - 23.3 1008.5 5.8
15/09:30pm NNE 4 6 - - - - 10 - - 23.5 1008.4 5.8
15/09:00pm N 6 7 - - - - 10 Partly cloudy - 23.7 1008.5 5.8
15/08:30pm N 9 12 - - - - 10 Cloudy - 24.1 1008.2 5.8
15/08:00pm N 10 14 - - - - 10 Partly cloudy - 23.8 1007.9 5.8
15/07:54pm N 11 15 - - - - 10 Partly cloudy - 23.8 1007.9 5.8
15/07:30pm N 9 12 - - - - 10 Partly cloudy - 23.5 1007.7 5.8
15/07:00pm N 10 13 - - - - 10 Partly cloudy - 23.4 1007.5 5.8
15/06:38pm N 11 16 - - - - 10 Partly cloudy - 23.5 1007.3 5.8
15/06:33pm NNW 11 14 - - - - 10 Partly cloudy - 23.5 1007.3 5.8
15/06:30pm NNW 11 15 - - - - 10 Partly cloudy - 23.4 1007.2 5.8
15/06:00pm N 15 23 - - - - 10 Cloudy - 24.0 1006.4 5.8
15/05:34pm N 17 21 - - - - 10 Partly cloudy - 24.3 1006.0 5.8
15/05:30pm N 17 23 - - - - 10 Partly cloudy - 24.4 1005.9 5.8
15/05:00pm N 14 19 - - - - 10 - - 24.3 1005.3 5.8
15/04:30pm N 17 22 - - - - 10 - - 25.1 1005.3 5.8
15/04:00pm N 13 17 - - - - 10 - - 25.4 1005.6 5.8
15/03:30pm NNE 10 13 - - - - 10 Partly cloudy - 25.5 1005.6 5.8
15/03:00pm N 10 13 - - - - 10 Mostly clear - 24.9 1005.7 5.8
15/02:30pm NNW 8 11 - - - - 10 Partly cloudy - 23.8 1006.2 5.8
15/02:00pm N 3 5 - - - - 10 Partly cloudy - 22.4 1006.7 5.8
15/01:30pm S 4 7 - - - - 10 Partly cloudy - 21.7 1006.8 5.8
15/01:24pm S 5 9 - - - - 10 Partly cloudy - 21.2 1006.6 5.8
15/01:09pm NW 5 9 - - - - 10 Partly cloudy - 20.3 1007.6 5.8
15/01:00pm W 11 19 - - - - 6 Partly cloudy - 19.7 1008.0 5.8
15/12:55pm W 16 24 - - - - 6 Partly cloudy - 19.7 1007.7 5.6
15/12:43pm WNW 23 32 - - - - 5 Partly cloudy - 21.2 1008.0 3.6
15/12:41pm NW 24 32 - - - - 5 Partly cloudy - 21.9 1008.2 3.4
15/12:40pm NW 24 31 - - - - 5 Partly cloudy - 22.6 1008.2 3.2
15/12:39pm NNW 24 33 - - - - 6 Partly cloudy - 23.2 1008.1 3.2
15/12:30pm NNW 23 34 - - - - 10 Partly cloudy - 23.7 1006.9 1.8
15/12:21pm N 21 32 - - - - 10 Partly cloudy - 24.3 1006.5 1.6
15/12:13pm N 21 27 - - - - 10 Cloudy - 24.5 1006.4 1.6
15/12:00pm N 18 25 - - - - 10 Cloudy Thunderstorm 25.6 1006.8 1.6
15/11:44am N 16 21 - - - - 10 Partly cloudy - 24.9 1006.8 1.6
15/11:32am N 19 25 - - - - 10 Partly cloudy - 24.4 1007.6 1.0
15/11:30am N 19 25 - - - - 10 Partly cloudy - 24.7 1007.7 0.8
15/11:22am N 21 27 - - - - 10 Partly cloudy - 25.4 1007.6 0.8
15/11:00am N 20 25 - - - - 10 Partly cloudy - 26.5 1007.7 0.8
15/10:51am N 19 24 - - - - 10 Partly cloudy - 27.5 1007.9 0.8
15/10:41am NNW 18 26 - - - - 10 Partly cloudy - 27.4 1008.0 0.8
15/10:32am NNW 18 23 - - - - 10 Partly cloudy - 27.1 1008.4 0.8
15/10:30am NNW 18 23 - - - - 10 Partly cloudy - 27.1 1008.5 0.8
15/10:03am N 17 23 - - - - 10 Partly cloudy - 24.7 1009.2 0.8
15/10:00am N 18 23 - - - - 10 Partly cloudy - 24.9 1009.2 0.8
15/09:53am N 19 23 - - - - 10 Partly cloudy - 25.3 1009.1 0.8
15/09:30am N 17 28 - - - - 6 Partly cloudy - 23.5 1009.5 0.6
15/09:00am N 15 23 - - - - 10 Cloudy Thunderstorm 24.9 1009.7 0.2
15/08:30am NNW 13 17 - - - - 10 Partly cloudy - 24.1 1010.3 0.2
15/08:00am NNW 12 17 - - - - 10 Partly cloudy - 23.7 1010.8 0.2
15/07:46am NNW 13 21 - - - - 10 Partly cloudy - 23.5 1010.7 0.2
15/07:31am N 15 20 - - - - 10 Cloudy - 23.4 1010.6 0.2
15/07:30am N 15 20 - - - - 10 Partly cloudy - 23.5 1010.5 0.0
15/07:00am NNW 10 13 - - - - 10 Partly cloudy - 23.3 1010.3 0.0
15/06:55am N 11 16 - - - - 10 Partly cloudy - 23.3 1010.3 0.0
15/06:30am N 8 11 - - - - 10 Partly cloudy - 23.3 1010.4 0.0
15/06:22am NNW 9 13 - - - - 10 Partly cloudy - 23.2 1010.4 0.0
15/06:02am NNW 11 14 - - - - 10 Partly cloudy - 23.0 1010.5 0.0
15/06:00am NNW 11 15 - - - - 10 Cloudy - 23.0 1010.5 0.0
15/05:57am NNW 12 17 - - - - 10 Partly cloudy - 23.0 1010.5 0.0
15/05:30am N 12 16 - - - - 10 Partly cloudy - 23.5 1009.8 0.0
15/05:00am N 15 20 - - - - 10 Cloudy - 23.4 1009.0 0.0
15/04:30am N 13 20 - - - - 10 Partly cloudy - 23.4 1009.0 0.0
15/04:00am N 13 18 - - - - 10 Partly cloudy - 23.2 1008.9 0.0
15/03:30am N 17 22 - - - - 10 Partly cloudy - 23.1 1008.2 0.0
15/03:00am N 16 21 - - - - 10 Cloudy - 23.2 1008.2 0.0
15/02:39am N 15 20 - - - - 10 Partly cloudy - 23.0 1008.4 0.0
15/02:36am N 16 21 - - - - 10 Partly cloudy - 23.0 1008.4 0.0
15/02:30am N 17 21 - - - - 10 Partly cloudy - 23.0 1008.3 0.0
15/02:00am N 15 21 - - - - 10 Partly cloudy - 23.3 1008.7 0.0
15/01:38am N 15 21 - - - - 10 Partly cloudy - 23.3 1009.0 0.0
15/01:30am N 16 21 - - - - 10 Partly cloudy - 23.3 1009.1 0.0
15/01:15am N 16 23 - - - - 10 Partly cloudy - 23.4 1009.0 0.0
15/01:00am N 15 21 - - - - 10 Partly cloudy - 23.2 1009.1 0.0
15/12:30am N 14 18 - - - - 10 Partly cloudy - 23.3 1009.7 0.0
15/12:00am N 13 18 - - - - 10 Cloudy - 23.3 1010.2 0.0
 
Date/Time
EST
Wind Sea
Height
m
Swell Vis
km
Cloud Weather Temp
°C
Press
MSL
hPa
Rain since
9am
mm
Dir  Spd
kts
Gust
kts
Height
m
Period
s
Dir
14/11:30pm N 13 20 - - - - 10 Cloudy - 23.5 1010.5 0.0
14/11:00pm N 13 18 - - - - 10 Partly cloudy - 23.5 1010.8 0.0
14/10:30pm N 14 19 - - - - 10 Partly cloudy - 23.7 1010.9 0.0
14/10:00pm N 11 16 - - - - 10 Partly cloudy - 23.6 1011.2 0.0
14/09:30pm N 11 16 - - - - 10 Partly cloudy - 23.6 1011.1 0.0
14/09:07pm N 13 17 - - - - 10 Partly cloudy - 23.6 1010.9 0.0
14/09:00pm N 13 17 - - - - 10 Cloudy - 23.6 1010.9 0.0
14/08:45pm N 14 18 - - - - 10 Partly cloudy - 23.6 1010.9 0.0
14/08:30pm N 10 14 - - - - 10 Partly cloudy - 23.5 1010.9 0.0
14/08:00pm N 7 11 - - - - 10 Partly cloudy - 23.5 1011.3 0.0
14/07:47pm N 9 13 - - - - 10 Partly cloudy - 23.4 1011.1 0.0
14/07:30pm N 9 11 - - - - 10 Partly cloudy - 23.3 1010.6 0.0
14/07:00pm N 12 17 - - - - 10 - - 23.6 1010.2 0.0
14/06:30pm N 12 16 - - - - 10 - - 23.6 1009.9 0.0
14/06:00pm N 14 19 - - - - 10 - - 23.8 1009.2 0.0
14/05:30pm N 14 21 - - - - 10 - - 24.5 1009.1 0.0
14/05:00pm N 14 20 - - - - 10 - - 25.0 1008.8 0.0
14/04:30pm N 17 25 - - - - 10 - - 25.7 1008.4 0.0
14/04:00pm N 17 22 - - - - 10 - - 26.1 1008.4 0.0
14/03:30pm N 20 28 - - - - 10 - - 26.5 1008.4 0.0
14/03:00pm N 17 23 - - - - 10 - - 27.2 1008.8 0.0
14/02:30pm NNE 15 19 - - - - 10 - - 27.8 1008.7 0.0
14/02:00pm N 17 22 - - - - 10 - - 27.3 1008.8 0.0
14/01:30pm NNE 16 20 - - - - 10 - - 27.7 1009.2 0.0
14/01:00pm N 15 20 - - - - 10 - - 27.9 1009.3 0.0
14/12:30pm N 17 23 - - - - 10 - - 27.7 1010.2 0.0
14/12:00pm N 16 22 - - - - 10 - - 27.7 1010.5 0.0
14/11:30am N 15 20 - - - - 10 Partly cloudy - 27.1 1011.1 0.0
14/11:00am N 15 19 - - - - 10 Partly cloudy - 26.8 1011.3 0.0
14/10:30am N 12 17 - - - - 10 Partly cloudy - 25.8 1011.4 0.0
14/10:00am N 12 18 - - - - 10 Partly cloudy - 26.2 1011.6 0.0
14/09:30am N 14 19 - - - - 10 Partly cloudy - 25.8 1011.5 0.0
14/09:00am N 13 21 - - - - 10 Partly cloudy - 25.6 1011.7 0.0
14/08:30am N 13 18 - - - - 10 Partly cloudy - 25.5 1011.7 0.0
14/08:00am N 13 17 - - - - 10 Partly cloudy - 24.6 1011.6 0.0
14/07:30am N 10 14 - - - - 10 Partly cloudy - 24.0 1011.7 0.0
14/07:00am NNE 13 16 - - - - 10 Partly cloudy - 23.8 1011.1 0.0
14/06:30am NNE 7 9 - - - - 10 Partly cloudy - 22.8 1011.3 0.0
14/06:00am NNE 7 9 - - - - 10 Mostly cloudy - 22.6 1011.1 0.0
14/05:49am NNE 7 8 - - - - 10 Partly cloudy - 22.5 1010.9 0.0
14/05:30am NNE 9 12 - - - - 10 Partly cloudy - 22.5 1010.7 0.0
14/05:08am NE 6 9 - - - - 10 Partly cloudy - 22.2 1010.4 0.0
14/05:00am NE 6 8 - - - - 10 Partly cloudy - 22.1 1010.3 0.0
14/04:30am ENE 8 10 - - - - 10 Partly cloudy - 21.9 1009.7 0.0
14/04:00am NE 5 8 - - - - 10 Partly cloudy - 22.2 1009.7 0.0
14/03:30am NE 7 9 - - - - 10 Partly cloudy - 21.9 1009.5 0.0
14/03:00am NE 5 7 - - - - 10 Cloudy - 21.9 1010.0 0.0
14/02:30am NE 6 9 - - - - 10 Partly cloudy - 21.9 1010.1 0.0
14/02:00am ENE 5 8 - - - - 10 Partly cloudy - 21.8 1010.2 0.0
14/01:30am E 6 9 - - - - 10 Cloudy - 21.6 1010.4 0.0
14/01:00am E 5 7 - - - - 10 Cloudy - 21.6 1010.8 0.0
14/12:30am E 8 10 - - - - 10 Partly cloudy - 21.6 1010.9 0.0
14/12:00am E 9 11 - - - - 10 Cloudy - 21.7 1011.2 0.0
 
Date/Time
EST
Wind Sea
Height
m
Swell Vis
km
Cloud Weather Temp
°C
Press
MSL
hPa
Rain since
9am
mm
Dir  Spd
kts
Gust
kts
Height
m
Period
s
Dir
13/11:30pm E 7 9 - - - - 10 Cloudy - 21.8 1011.5 0.0
13/11:00pm E 7 9 - - - - 10 Partly cloudy - 21.8 1011.8 0.0
13/10:30pm ESE 5 7 - - - - 10 Partly cloudy - 21.8 1012.3 0.0
13/10:00pm ESE 7 8 - - - - 10 Partly cloudy - 21.9 1012.3 0.0
13/09:30pm ESE 6 7 - - - - 10 Partly cloudy - 22.0 1012.6 0.0
13/09:00pm E 6 10 - - - - 10 Cloudy - 22.0 1012.6 0.0
13/08:30pm E 6 9 - - - - 10 Cloudy - 22.1 1012.6 0.0
13/08:00pm E 6 8 - - - - 10 Partly cloudy - 22.0 1012.2 0.0
13/07:30pm E 7 9 - - - - 10 Partly cloudy - 22.0 1011.7 0.0
13/07:00pm E 8 10 - - - - 10 Partly cloudy - 22.2 1011.3 0.0
13/06:30pm E 10 14 - - - - 10 Partly cloudy - 22.8 1010.9 0.0
13/06:00pm ENE 10 13 - - - - 10 Mostly cloudy - 22.9 1010.6 0.0
13/05:30pm ENE 10 13 - - - - 10 Cloudy - 23.3 1010.0 0.0
13/05:00pm E 9 12 - - - - 10 Partly cloudy - 24.1 1009.5 0.0
13/04:30pm ENE 10 14 - - - - 10 Partly cloudy - 24.6 1009.2 0.0
13/04:00pm ENE 9 13 - - - - 10 Cloudy - 25.6 1009.0 0.0
13/03:30pm ENE 10 17 - - - - 10 Partly cloudy - 26.1 1008.8 0.0
13/03:00pm ENE 14 18 - - - - 10 - - 26.0 1008.5 0.0
13/02:30pm E 11 13 - - - - 10 Partly cloudy - 26.0 1009.0 0.0
13/02:00pm ENE 10 15 - - - - 10 Partly cloudy - 25.9 1009.2 0.0
13/01:30pm ENE 9 13 - - - - 10 Partly cloudy - 25.3 1009.5 0.0
13/01:00pm ENE 4 9 - - - - 10 Cloudy - 25.7 1009.8 0.0

Other formats

Comma delimited format used in spreadsheet applications
http://www.bom.gov.au/fwo/IDQ60701/IDQ60701.94387.axf

JavaScript Object Notation format (JSON) in row-major order
http://www.bom.gov.au/fwo/IDQ60701/IDQ60701.94387.json

Data quality

Most of these data are generated automatically and are frequently updated. Quality checks on data are not normally performed. It is possible for incorrect values to appear. Refer to information at About Latest Weather Observations and please check the disclaimer before using these data.